createdAt,value
2022-12-16T00:01:20.389Z,100939.13
2022-12-16T00:03:52.213Z,100938.41
2022-12-16T00:06:23.335Z,100936.75
2022-12-16T00:08:49.768Z,100930.06
2022-12-16T00:11:18.375Z,100942.41
2022-12-16T00:13:44.864Z,100933.78
2022-12-16T00:16:13.829Z,100910.66
2022-12-16T00:18:40.653Z,100929.84
2022-12-16T00:21:08.170Z,100931.19
2022-12-16T00:23:35.704Z,100940.03
2022-12-16T00:26:02.685Z,100933.94
2022-12-16T00:28:30.137Z,100938.25
2022-12-16T00:30:56.646Z,100938.59
2022-12-16T00:33:25.225Z,100942.78
2022-12-16T00:35:52.634Z,100952.44
2022-12-16T00:38:20.890Z,100953.41
2022-12-16T00:40:47.558Z,100956.03
2022-12-16T00:43:14.300Z,100957.81
2022-12-16T00:45:41.091Z,100952.09
2022-12-16T00:48:08.156Z,100955.19
2022-12-16T00:50:35.715Z,100951.72
2022-12-16T00:53:02.840Z,100955.31
2022-12-16T00:55:29.685Z,100954.72
2022-12-16T00:57:57.086Z,100959.72
2022-12-16T01:00:23.816Z,100961.75
2022-12-16T01:02:51.246Z,100957.13
2022-12-16T01:05:22.127Z,100969.91
2022-12-16T01:07:48.531Z,100962.13
2022-12-16T01:10:15.326Z,100970.16
2022-12-16T01:12:41.784Z,100964.28
2022-12-16T01:15:10.012Z,100969.66
2022-12-16T01:17:36.493Z,100965.47
2022-12-16T01:20:03.779Z,100966.69
2022-12-16T01:22:32.687Z,100968.22
2022-12-16T01:25:00.011Z,100971.09
2022-12-16T01:27:27.723Z,100979.09
2022-12-16T01:29:55.454Z,100974.09
2022-12-16T01:32:22.594Z,100983.50
2022-12-16T01:34:55.281Z,100983.50
2022-12-16T01:37:23.710Z,100993.19
2022-12-16T01:39:50.987Z,100993.06
2022-12-16T01:42:22.744Z,101003.72
2022-12-16T01:44:52.214Z,101008.00
2022-12-16T01:47:28.192Z,101010.63
2022-12-16T01:50:15.124Z,101017.66
2022-12-16T01:52:48.344Z,101010.75
2022-12-16T01:55:51.053Z,101021.38
2022-12-16T01:58:23.147Z,101026.75
2022-12-16T02:00:50.913Z,101024.44
2022-12-16T02:03:17.660Z,101034.34
2022-12-16T02:05:45.810Z,101026.59
2022-12-16T02:08:21.598Z,101032.69
2022-12-16T02:11:08.008Z,101034.59
2022-12-16T02:13:59.927Z,101042.47
2022-12-16T02:16:53.145Z,101041.88
2022-12-16T02:19:43.247Z,101038.63
2022-12-16T02:22:24.672Z,101035.41
2022-12-16T02:25:12.312Z,101032.78
2022-12-16T02:28:11.494Z,101031.34
2022-12-16T02:30:55.099Z,101046.25
2022-12-16T02:33:29.539Z,101046.25
2022-12-16T02:36:02.148Z,101050.47
2022-12-16T02:38:43.784Z,101047.47
2022-12-16T02:41:22.574Z,101049.75
2022-12-16T02:44:06.426Z,101059.44
2022-12-16T02:46:38.275Z,101054.06
2022-12-16T02:49:14.462Z,101049.50
2022-12-16T02:51:41.464Z,101059.56
2022-12-16T02:54:09.933Z,101057.53
2022-12-16T02:56:36.391Z,101065.53
2022-12-16T02:59:18.945Z,101063.97
2022-12-16T03:01:57.706Z,101066.81
2022-12-16T03:04:45.483Z,101069.69
2022-12-16T03:07:15.493Z,101073.50
2022-12-16T03:09:43.565Z,101082.66
2022-12-16T03:12:14.804Z,101076.22
2022-12-16T03:14:44.079Z,101088.13
2022-12-16T03:17:12.980Z,101091.06
2022-12-16T03:19:44.175Z,101086.28
2022-12-16T03:22:18.798Z,101087.44
2022-12-16T03:24:45.328Z,101083.16
2022-12-16T03:27:19.022Z,101082.31
2022-12-16T03:29:56.613Z,101084.22
2022-12-16T03:32:30.736Z,101091.50
2022-12-16T03:35:13.533Z,101094.22
2022-12-16T03:37:42.369Z,101099.69
2022-12-16T03:40:10.617Z,101098.13
2022-12-16T03:42:39.292Z,101100.88
2022-12-16T03:45:08.501Z,101104.88
2022-12-16T03:47:34.912Z,101107.63
2022-12-16T03:50:01.489Z,101109.84
2022-12-16T03:52:27.891Z,101109.56
2022-12-16T03:54:55.311Z,101106.94
2022-12-16T03:57:21.797Z,101103.78
2022-12-16T03:59:48.253Z,101112.84
2022-12-16T04:02:14.846Z,101115.66
2022-12-16T04:04:41.381Z,101119.59
2022-12-16T04:07:24.692Z,101116.34
2022-12-16T04:09:52.526Z,101120.09
2022-12-16T04:12:38.765Z,101119.38
2022-12-16T04:15:38.742Z,101122.44
2022-12-16T04:18:33.364Z,101125.78
2022-12-16T04:21:18.664Z,101127.69
2022-12-16T04:24:10.168Z,101124.75
2022-12-16T04:26:56.579Z,101123.28
2022-12-16T04:29:23.418Z,101121.84
2022-12-16T04:31:51.167Z,101124.66
2022-12-16T04:34:27.285Z,101116.38
2022-12-16T04:37:14.080Z,101133.88
2022-12-16T04:39:59.501Z,101129.38
2022-12-16T04:42:44.794Z,101129.59
2022-12-16T04:45:30.028Z,101145.50
2022-12-16T04:48:15.485Z,101151.19
2022-12-16T04:51:00.251Z,101139.63
2022-12-16T04:53:45.754Z,101161.22
2022-12-16T04:56:31.069Z,101161.66
2022-12-16T04:59:15.893Z,101163.56
2022-12-16T05:02:01.077Z,101172.34
2022-12-16T05:04:46.146Z,101153.16
2022-12-16T05:07:36.329Z,101177.78
2022-12-16T05:10:23.848Z,101178.53
2022-12-16T05:13:11.823Z,101176.13
2022-12-16T05:15:56.643Z,101178.84
2022-12-16T05:18:41.561Z,101191.22
2022-12-16T05:21:26.477Z,101187.13
2022-12-16T05:24:11.943Z,101194.25
2022-12-16T05:26:56.812Z,101192.69
2022-12-16T05:29:41.717Z,101193.31
2022-12-16T05:32:27.523Z,101199.72
2022-12-16T05:35:12.270Z,101199.59
2022-12-16T05:37:57.052Z,101207.16
2022-12-16T05:40:41.854Z,101206.31
2022-12-16T05:43:27.335Z,101207.88
2022-12-16T05:46:12.255Z,101212.38
2022-12-16T05:48:57.389Z,101217.53
2022-12-16T05:51:42.231Z,101222.22
2022-12-16T05:54:27.665Z,101221.00
2022-12-16T05:57:12.629Z,101225.09
2022-12-16T05:59:57.463Z,101230.94
2022-12-16T06:02:42.548Z,101218.03
2022-12-16T06:05:27.335Z,101227.78
2022-12-16T06:08:12.739Z,101239.13
2022-12-16T06:10:57.601Z,101233.34
2022-12-16T06:13:42.404Z,101236.72
2022-12-16T06:16:27.976Z,101240.81
2022-12-16T06:19:13.086Z,101252.22
2022-12-16T06:21:57.979Z,101240.38
2022-12-16T06:24:42.804Z,101248.84
2022-12-16T06:27:27.713Z,101250.84
2022-12-16T06:30:12.466Z,101256.72
2022-12-16T06:32:57.368Z,101253.19
2022-12-16T06:35:42.164Z,101258.41
2022-12-16T06:38:26.996Z,101258.31
2022-12-16T06:41:11.792Z,101263.34
2022-12-16T06:43:56.668Z,101258.94
2022-12-16T06:46:41.553Z,101266.38
2022-12-16T06:49:43.265Z,101267.13
2022-12-16T06:52:28.204Z,101272.78
2022-12-16T06:55:13.082Z,101278.03
2022-12-16T06:57:59.298Z,101289.56
2022-12-16T07:00:45.324Z,101280.22
2022-12-16T07:03:35.597Z,101288.72
2022-12-16T07:06:21.219Z,101292.31
2022-12-16T07:09:06.157Z,101284.41
2022-12-16T07:11:50.850Z,101297.94
2022-12-16T07:14:35.680Z,101304.97
2022-12-16T07:17:20.502Z,101305.16
2022-12-16T07:20:05.432Z,101304.53
2022-12-16T07:22:58.402Z,101325.41
2022-12-16T07:25:47.630Z,101324.47
2022-12-16T07:28:32.917Z,101327.91
2022-12-16T07:31:18.334Z,101330.53
2022-12-16T07:34:03.481Z,101342.06
2022-12-16T07:36:48.279Z,101341.34
2022-12-16T07:39:33.104Z,101348.16
2022-12-16T07:42:18.178Z,101354.03
2022-12-16T07:45:04.036Z,101354.13
2022-12-16T07:47:48.879Z,101352.34
2022-12-16T07:50:33.792Z,101352.25
2022-12-16T07:53:19.218Z,101361.97
2022-12-16T07:56:04.395Z,101355.06
2022-12-16T07:58:49.818Z,101361.91
2022-12-16T08:01:34.733Z,101369.56
2022-12-16T08:04:19.989Z,101383.41
2022-12-16T08:07:04.659Z,101384.53
2022-12-16T08:09:49.546Z,101392.63
2022-12-16T08:12:34.348Z,101389.25
2022-12-16T08:15:19.163Z,101389.47
2022-12-16T08:18:08.529Z,101388.41
2022-12-16T08:20:53.902Z,101394.06
2022-12-16T08:23:40.563Z,101397.59
2022-12-16T08:26:25.886Z,101393.41
2022-12-16T08:29:35.142Z,101396.13
2022-12-16T08:32:15.815Z,101395.38
2022-12-16T08:35:01.363Z,101387.47
2022-12-16T08:37:46.537Z,101393.25
2022-12-16T08:40:36.065Z,101394.94
2022-12-16T08:43:22.145Z,101393.25
2022-12-16T08:46:07.068Z,101393.25
2022-12-16T08:48:52.294Z,101405.81
2022-12-16T08:51:37.082Z,101409.16
2022-12-16T08:54:21.872Z,101407.31
2022-12-16T08:57:07.832Z,101416.13
2022-12-16T09:00:03.278Z,101429.00
2022-12-16T09:02:49.721Z,101427.03
2022-12-16T09:05:36.620Z,101433.94
2022-12-16T09:08:23.143Z,101433.75
2022-12-16T09:11:08.376Z,101439.53
2022-12-16T09:13:53.569Z,101435.88
2022-12-16T09:16:39.860Z,101439.78
2022-12-16T09:19:25.114Z,101445.69
2022-12-16T09:22:10.088Z,101446.22
2022-12-16T09:25:01.097Z,101447.69
2022-12-16T09:27:45.888Z,101458.53
2022-12-16T09:30:31.312Z,101449.72
2022-12-16T09:33:16.162Z,101447.09
2022-12-16T09:36:01.099Z,101446.03
2022-12-16T09:38:45.924Z,101462.78
2022-12-16T09:41:55.590Z,101465.84
2022-12-16T09:45:15.938Z,101473.50
2022-12-16T09:48:25.278Z,101487.69
2022-12-16T09:51:13.986Z,101489.34
2022-12-16T09:54:01.328Z,101492.50
2022-12-16T09:56:55.100Z,101495.59
2022-12-16T09:59:48.209Z,101498.41
2022-12-16T10:02:36.212Z,101498.41
2022-12-16T10:05:22.462Z,101508.38
2022-12-16T10:08:19.229Z,101511.47
2022-12-16T10:11:19.292Z,101511.56
2022-12-16T10:14:20.350Z,101524.50
2022-12-16T10:17:41.666Z,101517.34
2022-12-16T10:20:41.200Z,101517.41
2022-12-16T10:23:58.464Z,101527.97
2022-12-16T10:27:32.166Z,101533.28
2022-12-16T10:30:18.503Z,101525.06
2022-12-16T10:33:08.338Z,101532.66
2022-12-16T10:36:03.082Z,101526.97
2022-12-16T10:38:58.627Z,101504.75
2022-12-16T10:41:46.839Z,101481.81
2022-12-16T10:44:47.874Z,101478.63
2022-12-16T10:47:33.876Z,101469.84
2022-12-16T10:50:18.615Z,101477.63
2022-12-16T10:53:16.326Z,101462.78
2022-12-16T10:56:01.220Z,101471.16
2022-12-16T10:59:10.404Z,101468.69
2022-12-16T11:01:55.379Z,101472.72
2022-12-16T11:04:51.329Z,101457.31
2022-12-16T11:07:55.382Z,101465.47
2022-12-16T11:10:45.373Z,101459.81
2022-12-16T11:13:42.957Z,101468.50
2022-12-16T11:16:32.529Z,101462.31
2022-12-16T11:19:18.590Z,101448.56
2022-12-16T11:22:04.240Z,101445.88
2022-12-16T11:24:49.584Z,101442.63
2022-12-16T11:27:41.660Z,101453.53
2022-12-16T11:30:32.706Z,101453.59
2022-12-16T11:33:23.163Z,101453.34
2022-12-16T11:36:12.571Z,101460.31
2022-12-16T11:39:03.114Z,101463.84
2022-12-16T11:41:53.940Z,101470.41
2022-12-16T11:44:44.941Z,101461.59
2022-12-16T11:47:52.602Z,101455.34
2022-12-16T11:50:41.017Z,101445.50
2022-12-16T11:53:37.454Z,101466.19
2022-12-16T11:56:23.773Z,101465.97
2022-12-16T11:59:16.617Z,101473.78
2022-12-16T12:02:08.113Z,101484.53
2022-12-16T12:04:53.976Z,101490.44
2022-12-16T12:08:16.064Z,101483.13
2022-12-16T12:11:19.764Z,101483.09
2022-12-16T12:14:26.403Z,101475.44
2022-12-16T12:17:19.367Z,101494.06
2022-12-16T12:20:22.045Z,101493.31
2022-12-16T12:23:07.025Z,101495.06
2022-12-16T12:26:04.134Z,101504.13
2022-12-16T12:29:15.533Z,101497.16
2022-12-16T12:32:55.317Z,101497.22
2022-12-16T12:35:56.607Z,101511.41
2022-12-16T12:39:07.761Z,101506.31
2022-12-16T12:42:08.100Z,101516.97
2022-12-16T12:45:09.225Z,101512.88
2022-12-16T12:48:15.289Z,101519.84
2022-12-16T12:51:23.985Z,101509.53
2022-12-16T12:54:33.294Z,101518.50
2022-12-16T12:57:21.918Z,101523.38
2022-12-16T13:00:19.113Z,101519.06
2022-12-16T13:03:23.617Z,101513.94
2022-12-16T13:06:09.322Z,101508.66
2022-12-16T13:08:54.017Z,101521.47
2022-12-16T13:11:38.817Z,101516.84
2022-12-16T13:14:51.891Z,101529.31
2022-12-16T13:17:42.286Z,101530.22
2022-12-16T13:20:52.295Z,101533.25
2022-12-16T13:23:46.391Z,101530.94
2022-12-16T13:26:34.856Z,101528.31
2022-12-16T13:29:34.668Z,101536.00
2022-12-16T13:32:22.976Z,101529.41
2022-12-16T13:35:27.098Z,101553.31
2022-12-16T13:38:20.608Z,101548.63
2022-12-16T13:41:20.208Z,101551.66
2022-12-16T13:44:16.315Z,101535.38
2022-12-16T13:47:13.490Z,101549.28
2022-12-16T13:50:32.477Z,101549.28
2022-12-16T13:53:21.273Z,101553.00
2022-12-16T13:56:19.227Z,101547.34
2022-12-16T13:59:08.624Z,101554.31
2022-12-16T14:02:02.511Z,101537.66
2022-12-16T14:04:55.242Z,101551.31
2022-12-16T14:07:42.843Z,101564.78
2022-12-16T14:10:46.197Z,101564.91
2022-12-16T14:13:47.542Z,101579.03
2022-12-16T14:16:53.102Z,101580.50
2022-12-16T14:20:15.333Z,101589.75
2022-12-16T14:23:03.172Z,101583.41
2022-12-16T14:25:48.593Z,101591.31
2022-12-16T14:28:46.676Z,101591.66
2022-12-16T14:31:37.530Z,101603.31
2022-12-16T14:34:22.760Z,101600.44
2022-12-16T14:37:08.082Z,101598.03
2022-12-16T14:39:59.007Z,101616.13
2022-12-16T14:42:47.403Z,101624.03
2022-12-16T14:45:53.809Z,101630.41
2022-12-16T14:48:49.443Z,101645.63
2022-12-16T14:51:47.418Z,101649.19
2022-12-16T14:54:39.908Z,101646.44
2022-12-16T14:57:37.035Z,101649.66
2022-12-16T15:00:28.060Z,101658.63
2022-12-16T15:03:16.372Z,101659.78
2022-12-16T15:06:02.647Z,101660.47
2022-12-16T15:08:52.462Z,101670.41
2022-12-16T15:11:41.458Z,101678.28
2022-12-16T15:14:35.449Z,101676.91
2022-12-16T15:17:21.482Z,101677.19
2022-12-16T15:20:10.324Z,101683.03
2022-12-16T15:22:56.776Z,101683.47
2022-12-16T15:25:44.782Z,101684.03
2022-12-16T15:28:58.040Z,101687.41
2022-12-16T15:31:48.948Z,101693.03
2022-12-16T15:34:48.180Z,101712.00
2022-12-16T15:37:43.226Z,101701.69
2022-12-16T15:40:38.657Z,101711.69
2022-12-16T15:43:24.131Z,101713.06
2022-12-16T15:46:09.628Z,101712.31
2022-12-16T15:48:55.877Z,101710.00
2022-12-16T15:52:01.099Z,101725.66
2022-12-16T15:54:46.192Z,101729.34
2022-12-16T15:57:51.783Z,101718.69
2022-12-16T16:00:46.876Z,101736.34
2022-12-16T16:03:59.095Z,101738.66
2022-12-16T16:06:45.360Z,101744.44
2022-12-16T16:09:34.729Z,101740.78
2022-12-16T16:12:19.632Z,101738.00
2022-12-16T16:15:05.026Z,101741.97
2022-12-16T16:17:50.556Z,101748.72
2022-12-16T16:20:37.081Z,101754.94
2022-12-16T16:23:22.997Z,101752.47
2022-12-16T16:26:08.410Z,101762.06
2022-12-16T16:28:53.717Z,101760.97
2022-12-16T16:32:00.764Z,101769.13
2022-12-16T16:34:48.658Z,101758.72
2022-12-16T16:37:36.120Z,101763.22
2022-12-16T16:40:49.302Z,101763.19
2022-12-16T16:43:34.503Z,101766.66
2022-12-16T16:46:19.821Z,101769.34
2022-12-16T16:49:05.095Z,101779.03
2022-12-16T16:51:50.031Z,101781.00
2022-12-16T16:54:35.425Z,101789.19
2022-12-16T16:57:20.751Z,101792.19
2022-12-16T17:00:05.940Z,101791.06
2022-12-16T17:02:50.936Z,101801.75
2022-12-16T17:05:36.215Z,101807.19
2022-12-16T17:08:21.053Z,101801.56
2022-12-16T17:11:06.307Z,101813.28
2022-12-16T17:13:51.274Z,101812.44
2022-12-16T17:16:36.245Z,101819.94
2022-12-16T17:19:24.477Z,101822.66
2022-12-16T17:22:09.536Z,101815.06
2022-12-16T17:24:54.779Z,101813.28
2022-12-16T17:27:43.166Z,101815.06
2022-12-16T17:30:39.738Z,101825.47
2022-12-16T17:33:26.981Z,101826.50
2022-12-16T17:36:11.869Z,101828.94
2022-12-16T17:39:01.838Z,101833.06
2022-12-16T17:41:48.633Z,101814.38
2022-12-16T17:44:34.133Z,101832.69
2022-12-16T17:47:19.606Z,101826.09
2022-12-16T17:50:04.705Z,101829.84
2022-12-16T17:52:50.000Z,101833.94
2022-12-16T17:55:35.304Z,101832.34
2022-12-16T17:58:20.089Z,101838.88
2022-12-16T18:01:05.936Z,101836.75
2022-12-16T18:03:50.871Z,101851.91
2022-12-16T18:06:36.001Z,101850.06
2022-12-16T18:09:21.385Z,101840.75
2022-12-16T18:12:06.513Z,101849.75
2022-12-16T18:14:51.860Z,101847.25
2022-12-16T18:17:36.733Z,101843.22
2022-12-16T18:20:22.089Z,101852.56
2022-12-16T18:23:11.441Z,101864.25
2022-12-16T18:25:56.750Z,101867.06
2022-12-16T18:28:42.696Z,101867.16
2022-12-16T18:31:27.646Z,101860.41
2022-12-16T18:34:12.961Z,101870.28
2022-12-16T18:36:58.315Z,101862.41
2022-12-16T18:39:44.018Z,101869.84
2022-12-16T18:42:28.899Z,101876.56
2022-12-16T18:45:13.866Z,101875.03
2022-12-16T18:47:58.753Z,101872.94
2022-12-16T18:50:43.525Z,101883.59
2022-12-16T18:53:28.594Z,101881.19
2022-12-16T18:56:22.070Z,101877.94
2022-12-16T18:59:20.643Z,101878.53
2022-12-16T19:02:05.845Z,101876.09
2022-12-16T19:04:51.040Z,101888.47
2022-12-16T19:07:35.840Z,101879.09
2022-12-16T19:10:20.740Z,101883.59
2022-12-16T19:13:05.586Z,101892.69
2022-12-16T19:15:51.140Z,101889.22
2022-12-16T19:18:36.221Z,101890.59
2022-12-16T19:21:21.711Z,101884.44
2022-12-16T19:24:07.541Z,101895.50
2022-12-16T19:26:52.949Z,101893.22
2022-12-16T19:29:41.787Z,101895.41
2022-12-16T19:32:26.588Z,101910.38
2022-12-16T19:35:11.693Z,101911.22
2022-12-16T19:37:56.976Z,101897.13
2022-12-16T19:40:42.124Z,101912.00
2022-12-16T19:43:27.447Z,101907.66
2022-12-16T19:46:13.763Z,101907.84
2022-12-16T19:48:59.117Z,101911.22
2022-12-16T19:51:46.574Z,101910.63
2022-12-16T19:54:31.477Z,101917.53
2022-12-16T19:57:17.354Z,101916.19
2022-12-16T20:00:02.099Z,101913.66
2022-12-16T20:02:47.169Z,101912.41
2022-12-16T20:05:32.931Z,101922.44
2022-12-16T20:08:17.805Z,101923.38
2022-12-16T20:11:02.705Z,101927.72
2022-12-16T20:13:47.508Z,101928.91
2022-12-16T20:16:32.512Z,101929.91
2022-12-16T20:19:18.392Z,101936.69
2022-12-16T20:22:06.791Z,101933.31
2022-12-16T20:24:53.599Z,101940.00
2022-12-16T20:27:41.711Z,101940.22
2022-12-16T20:30:27.091Z,101926.59
2022-12-16T20:33:11.905Z,101943.69
2022-12-16T20:35:56.779Z,101949.16
2022-12-16T20:38:41.534Z,101949.81
2022-12-16T20:41:26.336Z,101954.19
2022-12-16T20:44:11.269Z,101942.13
2022-12-16T20:46:56.429Z,101940.72
2022-12-16T20:49:41.974Z,101952.31
2022-12-16T20:52:27.264Z,101956.00
2022-12-16T20:55:13.026Z,101959.81
2022-12-16T20:57:57.888Z,101961.47
2022-12-16T21:00:42.801Z,101953.66
2022-12-16T21:03:27.845Z,101969.81
2022-12-16T21:06:12.616Z,101962.13
2022-12-16T21:08:57.475Z,101975.03
2022-12-16T21:11:42.390Z,101969.34
2022-12-16T21:14:27.332Z,101974.66
2022-12-16T21:17:12.255Z,101980.88
2022-12-16T21:19:57.051Z,101979.53
2022-12-16T21:22:42.175Z,101988.81
2022-12-16T21:25:27.553Z,101988.44
2022-12-16T21:28:16.916Z,101987.59
2022-12-16T21:31:03.308Z,101999.38
2022-12-16T21:33:49.101Z,101994.06
2022-12-16T21:36:34.377Z,101996.75
2022-12-16T21:39:19.289Z,101979.81
2022-12-16T21:42:04.708Z,102013.63
2022-12-16T21:44:50.156Z,101999.28
2022-12-16T21:47:35.056Z,102005.50
2022-12-16T21:50:20.415Z,102012.75
2022-12-16T21:53:06.743Z,102013.00
2022-12-16T21:55:51.531Z,102012.13
2022-12-16T21:58:37.249Z,102006.97
2022-12-16T22:01:22.100Z,102011.03
2022-12-16T22:04:07.341Z,102010.03
2022-12-16T22:06:52.222Z,102017.78
2022-12-16T22:09:37.574Z,102011.88
2022-12-16T22:12:23.023Z,102019.50
2022-12-16T22:15:07.943Z,102026.88
2022-12-16T22:17:57.945Z,102030.47
2022-12-16T22:20:43.582Z,102033.16
2022-12-16T22:23:28.571Z,102035.81
2022-12-16T22:26:15.827Z,102038.59
2022-12-16T22:29:00.616Z,102035.41
2022-12-16T22:31:45.567Z,102045.78
2022-12-16T22:34:30.772Z,102033.94
2022-12-16T22:37:15.670Z,102044.47
2022-12-16T22:40:00.652Z,102055.19
2022-12-16T22:42:45.554Z,102059.34
2022-12-16T22:45:31.018Z,102064.34
2022-12-16T22:48:16.239Z,102070.44
2022-12-16T22:51:01.475Z,102063.56
2022-12-16T22:53:46.605Z,102065.41
2022-12-16T22:56:31.932Z,102068.53
2022-12-16T22:59:16.839Z,102067.75
2022-12-16T23:02:01.748Z,102074.50
2022-12-16T23:04:47.023Z,102073.94
2022-12-16T23:07:32.176Z,102079.09
2022-12-16T23:10:17.170Z,102082.19
2022-12-16T23:13:01.959Z,102082.53
2022-12-16T23:15:46.916Z,102077.38
2022-12-16T23:18:31.871Z,102078.38
2022-12-16T23:21:16.730Z,102079.59
2022-12-16T23:24:01.610Z,102075.56
2022-12-16T23:26:47.307Z,102076.69
2022-12-16T23:29:32.212Z,102077.69
2022-12-16T23:32:17.575Z,102081.19
2022-12-16T23:35:02.495Z,102081.97
2022-12-16T23:37:47.384Z,102082.06
2022-12-16T23:40:32.670Z,102084.53
2022-12-16T23:43:17.628Z,102080.94
2022-12-16T23:46:03.152Z,102077.13
2022-12-16T23:48:48.402Z,102083.63
2022-12-16T23:51:33.268Z,102076.53
2022-12-16T23:54:18.587Z,102078.47
2022-12-16T23:57:03.486Z,102085.97
2022-12-16T23:59:48.872Z,102080.47
